Anzeige # 
Titel Autor Zugriffe
CORONA Geschrieben von Super User 154
Weihnachten 2019 Geschrieben von Super User 229
PPL (A) Pilot Geschrieben von Super User 540
Unser neues Flugzeug Geschrieben von Super User 1493
Weihnachten Geschrieben von Super User 1322
PPL (A) Pilot Geschrieben von Super User 1755

Unterkategorien

Flugwetter Augsburg

[source: ADDS]
METAR
EDMA 260120Z AUTO 00000KT 9999 // NCD 07/05 Q1032 =
TAF EDMA 251700Z 2518/2603 32008KT 9999 SCT045 BECMG 2519/2521 VRB03KT
TAF
TAF EDMA 251700Z 2518/2603 32008KT 9999 SCT045 BECMG 2519/2521 VRB03KT =
Cookies erleichtern die Bereitstellung unserer Dienste. Mit der Nutzung unserer Dienste erklären Sie sich damit einverstanden, dass wir Cookies verwenden.
Weitere Informationen Ok